KGNV Airport (Gainesville Rgnl) Information

FAA: GNV - ICAO: KGNV

KGNV Airport Location

State Florida
County Alachua
City Gainesville
KGNV Airport is 3 miles northeast of Gainesville, FL.
Latitude 29-41-24.2000N
Longitude 082-16-18.4000W
Elevation 151ft

KGNV Airport METARs

METAR KGNV 180653Z AUTO 00000KT 10SM CLR 11/10 A3014 RMK AO2 SLP205 T01060100
Altimeter 30.14"
Temperature 10.6°C (51.1°F)
Wind 0° at 0KT
Clouds Skies are clear.
Visibility 10.0mi
Time observed: 2021-10-18T06:53:00Z

KGNV Airport Details

Status Operational
Activation April 1940
Ownership Public
Usage Public
Chart JACKSONVILLE
ATC on-site Yes
Beacon schedule sunset-sunrise
Beacon color clear green

KGNV Airport Contacts

Owner GAINESVILLE-ALACHUA CO AUTH
Owner address 3880 NE 39TH AVE, GAINESVILLE, FL 32609
Owner phone 352-373-0249
Manager N/A
Manager address N/A, N/A
Manager phone N/A

KGNV Airport (Gainesville Rgnl) Radio Frequencies

KGNV (Airport) Radio Frequencies

UNICOM 122.95
Common traffic advisory frequency (CTAF) 119.55